createdAt,value
2022-10-22T00:01:21.353Z,6.20
2022-10-22T00:03:49.690Z,5.30
2022-10-22T00:06:17.955Z,5.13
2022-10-22T00:08:46.311Z,5.63
2022-10-22T00:11:20.076Z,5.85
2022-10-22T00:13:49.482Z,5.47
2022-10-22T00:16:17.795Z,5.72
2022-10-22T00:18:46.140Z,5.22
2022-10-22T00:21:14.660Z,5.00
2022-10-22T00:23:44.340Z,4.88
2022-10-22T00:26:12.821Z,5.28
2022-10-22T00:28:41.345Z,5.35
2022-10-22T00:31:10.485Z,5.53
2022-10-22T00:33:38.919Z,5.50
2022-10-22T00:36:07.581Z,5.97
2022-10-22T00:38:36.328Z,7.00
2022-10-22T00:41:04.601Z,5.85
2022-10-22T00:43:32.950Z,5.85
2022-10-22T00:46:01.285Z,5.82
2022-10-22T00:48:37.020Z,6.05
2022-10-22T00:51:09.501Z,6.15
2022-10-22T00:53:49.266Z,5.43
2022-10-22T00:56:18.301Z,5.72
2022-10-22T00:58:50.303Z,5.60
2022-10-22T01:01:28.035Z,5.68
2022-10-22T01:03:56.502Z,6.35
2022-10-22T01:06:35.434Z,5.53
2022-10-22T01:09:09.451Z,5.22
2022-10-22T01:12:11.055Z,6.28
2022-10-22T01:15:12.385Z,6.40
2022-10-22T01:17:58.701Z,6.43
2022-10-22T01:20:29.973Z,6.65
2022-10-22T01:23:35.601Z,6.45
2022-10-22T01:26:06.648Z,6.30
2022-10-22T01:28:43.920Z,6.70
2022-10-22T01:31:14.930Z,6.68
2022-10-22T01:33:45.500Z,6.13
2022-10-22T01:36:15.561Z,5.93
2022-10-22T01:38:46.146Z,6.15
2022-10-22T01:41:15.398Z,5.80
2022-10-22T01:43:43.895Z,6.18
2022-10-22T01:46:14.295Z,6.20
2022-10-22T01:48:42.580Z,6.03
2022-10-22T01:51:31.956Z,5.97
2022-10-22T01:54:23.104Z,6.53
2022-10-22T01:56:56.242Z,6.88
2022-10-22T01:59:33.305Z,6.32
2022-10-22T02:02:27.875Z,6.78
2022-10-22T02:05:24.865Z,7.13
2022-10-22T02:08:02.465Z,7.15
2022-10-22T02:10:32.318Z,7.75
2022-10-22T02:13:02.620Z,6.70
2022-10-22T02:15:34.463Z,7.45
2022-10-22T02:18:04.339Z,7.13
2022-10-22T02:20:36.720Z,6.80
2022-10-22T02:23:06.136Z,7.05
2022-10-22T02:25:39.415Z,8.27
2022-10-22T02:28:33.461Z,7.47
2022-10-22T02:31:11.380Z,7.03
2022-10-22T02:33:46.141Z,7.07
2022-10-22T02:36:16.707Z,6.75
2022-10-22T02:38:47.105Z,6.88
2022-10-22T02:41:18.136Z,6.72
2022-10-22T02:43:52.540Z,6.63
2022-10-22T02:46:21.186Z,6.65
2022-10-22T02:48:49.511Z,6.28
2022-10-22T02:51:17.840Z,6.90
2022-10-22T02:53:46.141Z,6.53
2022-10-22T02:56:15.218Z,6.82
2022-10-22T02:58:43.523Z,6.72
2022-10-22T03:01:15.219Z,5.32
2022-10-22T03:03:44.697Z,5.95
2022-10-22T03:06:13.140Z,6.60
2022-10-22T03:08:41.941Z,6.05
2022-10-22T03:11:10.459Z,6.97
2022-10-22T03:13:38.903Z,6.80
2022-10-22T03:16:07.762Z,6.40
2022-10-22T03:18:36.063Z,5.53
2022-10-22T03:21:24.990Z,6.60
2022-10-22T03:23:53.705Z,6.57
2022-10-22T03:26:22.475Z,6.50
2022-10-22T03:28:51.021Z,6.38
2022-10-22T03:31:19.253Z,6.25
2022-10-22T03:33:47.510Z,6.20
2022-10-22T03:36:15.886Z,6.68
2022-10-22T03:38:44.313Z,5.70
2022-10-22T03:41:12.781Z,6.70
2022-10-22T03:43:41.995Z,6.60
2022-10-22T03:46:10.240Z,5.82
2022-10-22T03:48:38.527Z,6.25
2022-10-22T03:51:07.100Z,6.25
2022-10-22T03:53:35.420Z,5.40
2022-10-22T03:56:03.905Z,6.68
2022-10-22T03:58:32.175Z,6.07
2022-10-22T04:01:09.747Z,7.25
2022-10-22T04:03:38.781Z,6.80
2022-10-22T04:06:14.053Z,5.93
2022-10-22T04:08:43.918Z,6.78
2022-10-22T04:11:14.260Z,6.15
2022-10-22T04:13:45.938Z,5.90
2022-10-22T04:16:25.188Z,6.40
2022-10-22T04:18:56.021Z,6.60
2022-10-22T04:21:24.538Z,6.20
2022-10-22T04:23:54.297Z,6.18
2022-10-22T04:26:22.941Z,6.82
2022-10-22T04:28:53.027Z,6.78
2022-10-22T04:31:23.896Z,6.93
2022-10-22T04:33:57.177Z,6.90
2022-10-22T04:36:26.280Z,6.03
2022-10-22T04:39:00.276Z,6.65
2022-10-22T04:41:33.819Z,6.68
2022-10-22T04:44:02.668Z,6.45
2022-10-22T04:46:33.874Z,6.57
2022-10-22T04:49:04.863Z,6.80
2022-10-22T04:51:33.946Z,7.70
2022-10-22T04:54:02.281Z,6.85
2022-10-22T04:56:32.696Z,7.40
2022-10-22T04:59:07.101Z,7.40
2022-10-22T05:01:41.706Z,6.60
2022-10-22T05:04:17.252Z,7.22
2022-10-22T05:06:46.148Z,6.40
2022-10-22T05:09:18.024Z,7.45
2022-10-22T05:11:49.578Z,7.18
2022-10-22T05:14:21.025Z,7.47
2022-10-22T05:16:52.451Z,6.30
2022-10-22T05:19:25.032Z,6.40
2022-10-22T05:21:55.100Z,6.60
2022-10-22T05:24:23.702Z,6.03
2022-10-22T05:26:53.501Z,6.20
2022-10-22T05:29:22.568Z,6.05
2022-10-22T05:31:51.742Z,6.25
2022-10-22T05:34:23.265Z,5.32
2022-10-22T05:36:51.580Z,5.00
2022-10-22T05:39:19.839Z,5.47
2022-10-22T05:41:57.110Z,5.63
2022-10-22T05:44:25.460Z,5.60
2022-10-22T05:46:53.800Z,5.32
2022-10-22T05:49:22.081Z,5.32
2022-10-22T05:51:50.443Z,6.55
2022-10-22T05:54:25.760Z,6.03
2022-10-22T05:56:54.136Z,5.50
2022-10-22T05:59:22.455Z,5.78
2022-10-22T06:01:53.591Z,5.85
2022-10-22T06:04:24.210Z,6.45
2022-10-22T06:06:54.641Z,5.93
2022-10-22T06:09:33.245Z,5.60
2022-10-22T06:12:01.655Z,5.43
2022-10-22T06:14:33.177Z,5.75
2022-10-22T06:17:01.590Z,5.43
2022-10-22T06:19:32.136Z,5.90
2022-10-22T06:22:00.538Z,5.32
2022-10-22T06:24:28.958Z,6.45
2022-10-22T06:26:57.500Z,5.40
2022-10-22T06:29:25.988Z,5.93
2022-10-22T06:31:54.301Z,5.18
2022-10-22T06:34:22.741Z,5.78
2022-10-22T06:36:52.678Z,4.97
2022-10-22T06:39:21.181Z,5.93
2022-10-22T06:41:49.940Z,5.60
2022-10-22T06:44:20.377Z,5.20
2022-10-22T06:46:53.027Z,5.18
2022-10-22T06:49:22.286Z,5.63
2022-10-22T06:51:54.935Z,5.85
2022-10-22T06:54:24.546Z,4.90
2022-10-22T06:56:52.880Z,5.80
2022-10-22T06:59:21.150Z,5.13
2022-10-22T07:01:49.497Z,4.93
2022-10-22T07:04:18.140Z,5.55
2022-10-22T07:06:46.461Z,5.50
2022-10-22T07:09:15.422Z,5.22
2022-10-22T07:11:46.080Z,4.93
2022-10-22T07:14:15.858Z,5.28
2022-10-22T07:16:46.580Z,5.68
2022-10-22T07:19:15.746Z,5.35
2022-10-22T07:21:44.060Z,5.32
2022-10-22T07:24:12.380Z,5.70
2022-10-22T07:26:40.862Z,5.38
2022-10-22T07:29:10.595Z,5.45
2022-10-22T07:31:38.958Z,5.50
2022-10-22T07:34:11.148Z,5.22
2022-10-22T07:36:39.422Z,5.72
2022-10-22T07:39:08.064Z,6.15
2022-10-22T07:41:36.384Z,6.30
2022-10-22T07:44:05.025Z,5.32
2022-10-22T07:46:33.807Z,5.43
2022-10-22T07:49:02.460Z,6.07
2022-10-22T07:51:30.715Z,5.72
2022-10-22T07:53:59.081Z,6.20
2022-10-22T07:56:27.419Z,5.72
2022-10-22T07:58:55.788Z,5.55
2022-10-22T08:01:24.209Z,5.55
2022-10-22T08:03:52.858Z,5.30
2022-10-22T08:06:21.220Z,6.13
2022-10-22T08:08:51.889Z,5.68
2022-10-22T08:11:20.535Z,5.75
2022-10-22T08:13:48.967Z,5.93
2022-10-22T08:16:17.445Z,5.50
2022-10-22T08:18:45.980Z,6.22
2022-10-22T08:21:14.949Z,6.65
2022-10-22T08:23:43.386Z,5.65
2022-10-22T08:26:12.660Z,6.28
2022-10-22T08:28:41.160Z,6.35
2022-10-22T08:31:10.179Z,5.60
2022-10-22T08:33:39.860Z,6.25
2022-10-22T08:36:09.032Z,6.68
2022-10-22T08:38:37.920Z,6.13
2022-10-22T08:41:19.471Z,6.75
2022-10-22T08:44:26.124Z,5.90
2022-10-22T08:47:19.972Z,6.38
2022-10-22T08:49:50.941Z,7.38
2022-10-22T08:52:23.180Z,6.85
2022-10-22T08:54:56.980Z,6.63
2022-10-22T08:57:46.549Z,6.47
2022-10-22T09:00:30.013Z,6.97
2022-10-22T09:03:32.180Z,6.80
2022-10-22T09:06:17.345Z,6.45
2022-10-22T09:08:47.461Z,6.40
2022-10-22T09:11:20.472Z,6.93
2022-10-22T09:13:50.285Z,7.15
2022-10-22T09:16:26.187Z,6.82
2022-10-22T09:19:09.290Z,7.80
2022-10-22T09:21:37.607Z,6.90
2022-10-22T09:24:23.691Z,6.85
2022-10-22T09:26:52.700Z,7.15
2022-10-22T09:29:25.619Z,7.03
2022-10-22T09:31:54.295Z,7.60
2022-10-22T09:34:23.265Z,7.70
2022-10-22T09:37:14.479Z,7.47
2022-10-22T09:39:47.543Z,7.00
2022-10-22T09:42:22.020Z,7.35
2022-10-22T09:44:59.585Z,6.80
2022-10-22T09:47:42.663Z,7.38
2022-10-22T09:50:32.380Z,7.55
2022-10-22T09:53:06.469Z,6.82
2022-10-22T09:55:34.936Z,7.20
2022-10-22T09:58:03.260Z,7.43
2022-10-22T10:00:31.694Z,7.15
2022-10-22T10:03:01.663Z,7.95
2022-10-22T10:05:33.660Z,8.05
2022-10-22T10:08:17.184Z,6.82
2022-10-22T10:10:51.259Z,7.20
2022-10-22T10:13:28.062Z,7.45
2022-10-22T10:16:15.098Z,7.57
2022-10-22T10:19:00.365Z,6.80
2022-10-22T10:21:35.559Z,7.63
2022-10-22T10:24:28.145Z,7.40
2022-10-22T10:27:36.399Z,6.45
2022-10-22T10:30:04.705Z,7.03
2022-10-22T10:32:42.411Z,6.28
2022-10-22T10:35:49.136Z,7.07
2022-10-22T10:38:44.360Z,6.70
2022-10-22T10:44:37.180Z,6.35
2022-10-22T10:47:23.641Z,7.15
2022-10-22T10:50:01.821Z,6.60
2022-10-22T10:52:53.980Z,6.85
2022-10-22T10:55:54.661Z,6.50
2022-10-22T10:58:28.640Z,7.10
2022-10-22T11:01:14.189Z,6.95
2022-10-22T11:04:05.339Z,7.20
2022-10-22T11:06:37.182Z,6.28
2022-10-22T11:09:26.020Z,7.15
2022-10-22T11:12:12.500Z,6.72
2022-10-22T11:15:00.706Z,6.47
2022-10-22T11:17:40.535Z,6.75
2022-10-22T11:20:17.958Z,6.30
2022-10-22T11:23:18.098Z,6.75
2022-10-22T11:25:49.620Z,6.45
2022-10-22T11:28:41.180Z,6.57
2022-10-22T11:31:17.181Z,6.53
2022-10-22T11:34:32.222Z,6.57
2022-10-22T11:37:01.188Z,6.65
2022-10-22T11:39:36.381Z,6.47
2022-10-22T11:42:41.986Z,6.63
2022-10-22T11:48:08.560Z,6.65
2022-10-22T11:50:48.066Z,5.78
2022-10-22T11:53:16.377Z,6.10
2022-10-22T11:55:48.742Z,7.00
2022-10-22T11:58:31.715Z,6.28
2022-10-22T12:01:02.758Z,5.80
2022-10-22T12:03:33.980Z,6.38
2022-10-22T12:06:20.700Z,6.38
2022-10-22T12:08:52.409Z,6.30
2022-10-22T12:11:20.704Z,5.80
2022-10-22T12:14:20.661Z,6.80
2022-10-22T12:16:56.946Z,5.95
2022-10-22T12:19:39.265Z,6.45
2022-10-22T12:22:32.706Z,6.20
2022-10-22T12:25:17.018Z,6.05
2022-10-22T12:27:48.380Z,6.07
2022-10-22T12:30:24.699Z,6.40
2022-10-22T12:33:03.791Z,6.20
2022-10-22T12:35:36.569Z,6.18
2022-10-22T12:38:14.588Z,5.50
2022-10-22T12:40:45.990Z,6.00
2022-10-22T12:43:20.439Z,6.15
2022-10-22T12:45:51.603Z,5.82
2022-10-22T12:48:33.886Z,6.10
2022-10-22T12:51:09.125Z,6.00
2022-10-22T12:53:40.960Z,6.35
2022-10-22T12:56:16.391Z,5.30
2022-10-22T12:59:28.020Z,6.30
2022-10-22T13:01:57.820Z,5.38
2022-10-22T13:04:38.119Z,5.32
2022-10-22T13:07:06.440Z,5.60
2022-10-22T13:09:58.142Z,5.57
2022-10-22T13:12:29.521Z,4.88
2022-10-22T13:14:57.820Z,5.05
2022-10-22T13:17:43.343Z,5.07
2022-10-22T13:20:20.221Z,5.75
2022-10-22T13:23:03.739Z,5.03
2022-10-22T13:25:40.630Z,5.40
2022-10-22T13:28:08.800Z,4.75
2022-10-22T13:30:39.205Z,4.75
2022-10-22T13:33:27.220Z,5.43
2022-10-22T13:35:57.619Z,5.20
2022-10-22T13:38:28.380Z,5.05
2022-10-22T13:40:57.340Z,5.15
2022-10-22T13:43:26.570Z,5.88
2022-10-22T13:45:58.746Z,5.53
2022-10-22T13:48:29.175Z,5.32
2022-10-22T13:50:57.664Z,4.90
2022-10-22T13:53:29.281Z,5.30
2022-10-22T13:55:57.985Z,5.50
2022-10-22T13:58:26.619Z,5.50
2022-10-22T14:01:03.366Z,5.03
2022-10-22T14:03:34.739Z,5.72
2022-10-22T14:06:05.068Z,5.03
2022-10-22T14:08:33.520Z,5.55
2022-10-22T14:11:01.940Z,4.90
2022-10-22T14:13:30.280Z,5.32
2022-10-22T14:15:59.093Z,5.65
2022-10-22T14:18:32.560Z,5.22
2022-10-22T14:21:08.484Z,4.88
2022-10-22T14:23:38.002Z,4.88
2022-10-22T14:26:08.230Z,5.75
2022-10-22T14:28:41.345Z,5.35
2022-10-22T14:31:20.295Z,4.32
2022-10-22T14:33:49.680Z,4.18
2022-10-22T14:36:19.935Z,5.50
2022-10-22T14:38:49.506Z,5.00
2022-10-22T14:41:29.754Z,5.13
2022-10-22T14:44:00.380Z,4.68
2022-10-22T14:46:28.675Z,4.57
2022-10-22T14:48:57.018Z,5.13
2022-10-22T14:51:25.344Z,4.85
2022-10-22T14:53:53.798Z,5.00
2022-10-22T14:56:22.319Z,5.22
2022-10-22T14:58:51.375Z,3.90
2022-10-22T15:01:19.677Z,5.15
2022-10-22T15:03:47.973Z,3.97
2022-10-22T15:06:16.220Z,5.03
2022-10-22T15:08:48.559Z,4.80
2022-10-22T15:11:17.015Z,5.40
2022-10-22T15:13:45.375Z,5.28
2022-10-22T15:16:18.509Z,4.70
2022-10-22T15:18:46.936Z,5.03
2022-10-22T15:21:18.992Z,4.32
2022-10-22T15:23:47.335Z,4.55
2022-10-22T15:26:16.081Z,4.32
2022-10-22T15:28:44.550Z,4.93
2022-10-22T15:31:15.455Z,4.75
2022-10-22T15:33:44.952Z,4.85
2022-10-22T15:36:16.731Z,4.85
2022-10-22T15:38:45.020Z,4.40
2022-10-22T15:41:14.275Z,4.88
2022-10-22T15:43:42.928Z,4.85
2022-10-22T15:46:17.103Z,5.15
2022-10-22T15:48:45.925Z,5.22
2022-10-22T15:51:19.361Z,5.53
2022-10-22T15:53:55.881Z,5.03
2022-10-22T15:56:24.865Z,4.28
2022-10-22T15:59:07.290Z,5.30
2022-10-22T16:01:36.865Z,3.88
2022-10-22T16:04:05.560Z,4.35
2022-10-22T16:06:37.505Z,4.15
2022-10-22T16:09:09.442Z,4.15
2022-10-22T16:11:39.035Z,3.17
2022-10-22T16:14:07.740Z,2.80
2022-10-22T16:16:40.386Z,2.78
2022-10-22T16:19:08.709Z,3.28
2022-10-22T16:21:37.019Z,2.80
2022-10-22T16:24:06.463Z,3.17
2022-10-22T16:26:35.736Z,2.47
2022-10-22T16:29:04.707Z,2.17
2022-10-22T16:31:33.025Z,1.65
2022-10-22T16:34:01.340Z,1.05
2022-10-22T16:36:29.820Z,0.88
2022-10-22T16:38:58.265Z,0.70
2022-10-22T16:41:27.106Z,0.65
2022-10-22T16:43:56.800Z,0.65
2022-10-22T16:46:25.340Z,0.80
2022-10-22T16:48:54.300Z,0.77
2022-10-22T16:51:26.741Z,0.47
2022-10-22T16:53:57.104Z,0.60
2022-10-22T16:56:27.087Z,0.65
2022-10-22T16:58:57.814Z,0.52
2022-10-22T17:01:30.042Z,0.82
2022-10-22T17:04:01.506Z,0.95
2022-10-22T17:06:32.860Z,0.52
2022-10-22T17:09:01.260Z,0.50
2022-10-22T17:11:36.464Z,0.70
2022-10-22T17:14:07.126Z,0.77
2022-10-22T17:16:35.425Z,1.02
2022-10-22T17:19:05.316Z,0.45
2022-10-22T17:21:34.949Z,0.47
2022-10-22T17:24:03.904Z,0.82
2022-10-22T17:26:36.281Z,0.65
2022-10-22T17:29:10.104Z,0.40
2022-10-22T17:31:39.346Z,0.60
2022-10-22T17:34:10.126Z,0.45
2022-10-22T17:36:38.809Z,0.68
2022-10-22T17:39:09.097Z,0.70
2022-10-22T17:41:38.805Z,0.90
2022-10-22T17:44:10.048Z,0.73
2022-10-22T17:46:39.544Z,0.68
2022-10-22T17:49:14.461Z,1.08
2022-10-22T17:51:42.788Z,0.68
2022-10-22T17:54:11.760Z,0.50
2022-10-22T17:56:43.581Z,0.77
2022-10-22T17:59:15.420Z,0.90
2022-10-22T18:01:47.935Z,1.13
2022-10-22T18:04:19.097Z,0.57
2022-10-22T18:06:48.856Z,1.00
2022-10-22T18:09:19.507Z,0.60
2022-10-22T18:11:50.221Z,0.85
2022-10-22T18:14:20.247Z,0.68
2022-10-22T18:16:49.170Z,0.75
2022-10-22T18:19:20.265Z,1.02
2022-10-22T18:21:48.580Z,0.73
2022-10-22T18:24:18.302Z,0.95
2022-10-22T18:26:46.825Z,1.15
2022-10-22T18:29:20.131Z,0.73
2022-10-22T18:31:49.723Z,1.00
2022-10-22T18:34:20.399Z,0.70
2022-10-22T18:36:51.530Z,0.70
2022-10-22T18:39:20.516Z,1.00
2022-10-22T18:41:48.866Z,1.10
2022-10-22T18:44:17.502Z,0.90
2022-10-22T18:46:45.838Z,0.60
2022-10-22T18:49:20.078Z,0.63
2022-10-22T18:51:53.506Z,0.45
2022-10-22T18:54:24.434Z,0.40
2022-10-22T18:56:55.540Z,0.73
2022-10-22T18:59:27.100Z,0.80
2022-10-22T19:02:00.410Z,0.65
2022-10-22T19:04:37.580Z,0.55
2022-10-22T19:07:06.876Z,0.63
2022-10-22T19:09:35.750Z,0.63
2022-10-22T19:12:04.140Z,0.50
2022-10-22T19:14:33.486Z,1.10
2022-10-22T19:17:01.732Z,0.82
2022-10-22T19:19:30.136Z,1.00
2022-10-22T19:22:00.448Z,0.88
2022-10-22T19:24:28.811Z,0.50
2022-10-22T19:26:57.225Z,0.88
2022-10-22T19:29:25.583Z,0.73
2022-10-22T19:31:53.992Z,0.43
2022-10-22T19:34:23.082Z,0.50
2022-10-22T19:36:52.575Z,0.80
2022-10-22T19:39:21.496Z,0.50
2022-10-22T19:41:49.895Z,0.85
2022-10-22T19:44:18.625Z,0.93
2022-10-22T19:46:46.948Z,0.85
2022-10-22T19:49:18.867Z,0.70
2022-10-22T19:51:50.366Z,0.98
2022-10-22T19:54:21.727Z,0.65
2022-10-22T19:56:51.098Z,0.63
2022-10-22T19:59:21.504Z,0.60
2022-10-22T20:01:50.256Z,0.70
2022-10-22T20:04:19.785Z,0.70
2022-10-22T20:06:48.377Z,0.60
2022-10-22T20:09:16.767Z,0.63
2022-10-22T20:11:46.763Z,0.50
2022-10-22T20:14:15.735Z,0.55
2022-10-22T20:16:44.351Z,0.50
2022-10-22T20:19:16.974Z,0.43
2022-10-22T20:21:46.858Z,1.00
2022-10-22T20:24:16.069Z,0.60
2022-10-22T20:26:47.262Z,0.82
2022-10-22T20:29:17.326Z,0.70
2022-10-22T20:31:46.140Z,0.75
2022-10-22T20:34:15.061Z,0.95
2022-10-22T20:36:43.550Z,0.57
2022-10-22T20:39:14.140Z,0.63
2022-10-22T20:41:42.806Z,0.73
2022-10-22T20:44:16.721Z,0.80
2022-10-22T20:46:45.661Z,1.30
2022-10-22T20:49:19.645Z,0.95
2022-10-22T20:51:48.513Z,0.60
2022-10-22T20:54:17.175Z,0.82
2022-10-22T20:56:46.299Z,1.02
2022-10-22T20:59:14.780Z,1.52
2022-10-22T21:01:47.719Z,0.93
2022-10-22T21:04:17.175Z,0.95
2022-10-22T21:06:45.503Z,0.95
2022-10-22T21:09:15.906Z,1.08
2022-10-22T21:11:45.192Z,1.00
2022-10-22T21:14:16.071Z,0.82
2022-10-22T21:16:46.865Z,1.02
2022-10-22T21:19:15.260Z,1.00
2022-10-22T21:21:43.582Z,1.23
2022-10-22T21:24:12.381Z,0.80
2022-10-22T21:26:42.601Z,1.33
2022-10-22T21:29:13.343Z,1.02
2022-10-22T21:31:41.980Z,0.95
2022-10-22T21:34:10.340Z,0.93
2022-10-22T21:36:38.687Z,0.85
2022-10-22T21:39:07.535Z,1.08
2022-10-22T21:41:35.440Z,1.27
2022-10-22T21:44:03.747Z,0.60
2022-10-22T21:46:32.061Z,1.00
2022-10-22T21:49:02.890Z,1.30
2022-10-22T21:51:34.440Z,1.35
2022-10-22T21:54:02.815Z,1.00
2022-10-22T21:56:34.321Z,0.90
2022-10-22T21:59:07.104Z,1.00
2022-10-22T22:01:36.359Z,1.10
2022-10-22T22:04:05.095Z,0.80
2022-10-22T22:06:34.184Z,0.90
2022-10-22T22:09:04.929Z,0.75
2022-10-22T22:11:33.669Z,1.00
2022-10-22T22:14:01.975Z,0.73
2022-10-22T22:16:33.580Z,0.80
2022-10-22T22:21:40.361Z,0.90
2022-10-22T22:24:09.920Z,0.73
2022-10-22T22:26:38.247Z,0.60
2022-10-22T22:29:06.639Z,1.38
2022-10-22T22:31:38.282Z,0.77
2022-10-22T22:34:09.546Z,1.02
2022-10-22T22:36:43.452Z,1.02
2022-10-22T22:39:20.341Z,1.08
2022-10-22T22:41:49.500Z,0.80
2022-10-22T22:44:17.982Z,0.65
2022-10-22T22:46:46.463Z,0.80
2022-10-22T22:49:15.380Z,1.08
2022-10-22T22:51:44.550Z,0.85
2022-10-22T22:54:13.070Z,0.98
2022-10-22T22:56:41.981Z,0.85
2022-10-22T22:59:11.700Z,0.80
2022-10-22T23:01:41.213Z,0.68
2022-10-22T23:04:20.222Z,0.95
2022-10-22T23:06:48.561Z,1.02
2022-10-22T23:09:21.657Z,0.70
2022-10-22T23:11:50.096Z,0.70
2022-10-22T23:14:20.230Z,0.80
2022-10-22T23:16:51.745Z,1.00
2022-10-22T23:19:22.926Z,0.80
2022-10-22T23:21:53.848Z,1.15
2022-10-22T23:24:25.187Z,0.70
2022-10-22T23:26:55.401Z,0.70
2022-10-22T23:29:29.303Z,0.63
2022-10-22T23:32:04.861Z,0.68
2022-10-22T23:34:33.540Z,0.73
2022-10-22T23:37:01.977Z,0.85
2022-10-22T23:39:30.976Z,0.95
2022-10-22T23:41:59.666Z,0.60
2022-10-22T23:44:28.181Z,1.27
2022-10-22T23:46:56.540Z,0.85
2022-10-22T23:49:24.867Z,0.90
2022-10-22T23:51:53.320Z,1.10
2022-10-22T23:54:21.614Z,1.17
2022-10-22T23:56:49.980Z,1.38
2022-10-22T23:59:18.370Z,0.65
